sensor_id;sensor_type;location;lat;lon;timestamp;P1;durP1;ratioP1;P2;durP2;ratioP2
20814;SDS011;10568;48.176;16.316;2022-08-19T00:02:24;3.05;;;1.55;;
20814;SDS011;10568;48.176;16.316;2022-08-19T00:04:50;2.40;;;1.73;;
20814;SDS011;10568;48.176;16.316;2022-08-19T00:07:20;3.50;;;1.88;;
20814;SDS011;10568;48.176;16.316;2022-08-19T00:09:46;3.83;;;1.80;;
20814;SDS011;10568;48.176;16.316;2022-08-19T00:12:12;4.18;;;1.45;;
20814;SDS011;10568;48.176;16.316;2022-08-19T00:14:38;2.13;;;1.10;;
20814;SDS011;10568;48.176;16.316;2022-08-19T00:17:06;3.00;;;1.88;;
20814;SDS011;10568;48.176;16.316;2022-08-19T00:19:33;2.67;;;1.67;;
20814;SDS011;10568;48.176;16.316;2022-08-19T00:21:59;4.13;;;1.45;;
20814;SDS011;10568;48.176;16.316;2022-08-19T00:24:25;3.97;;;1.50;;
20814;SDS011;10568;48.176;16.316;2022-08-19T00:26:53;2.20;;;1.60;;
20814;SDS011;10568;48.176;16.316;2022-08-19T00:29:21;2.83;;;1.45;;
20814;SDS011;10568;48.176;16.316;2022-08-19T00:31:49;3.67;;;1.98;;
20814;SDS011;10568;48.176;16.316;2022-08-19T00:34:18;2.05;;;1.50;;
20814;SDS011;10568;48.176;16.316;2022-08-19T00:36:44;5.00;;;1.75;;
20814;SDS011;10568;48.176;16.316;2022-08-19T00:39:10;5.25;;;1.67;;
20814;SDS011;10568;48.176;16.316;2022-08-19T00:41:38;3.88;;;1.90;;
20814;SDS011;10568;48.176;16.316;2022-08-19T00:46:42;3.83;;;1.98;;
20814;SDS011;10568;48.176;16.316;2022-08-19T00:49:18;3.05;;;1.85;;
20814;SDS011;10568;48.176;16.316;2022-08-19T00:51:53;3.80;;;1.80;;
20814;SDS011;10568;48.176;16.316;2022-08-19T00:54:25;4.38;;;2.03;;
20814;SDS011;10568;48.176;16.316;2022-08-19T00:56:55;3.28;;;1.90;;
20814;SDS011;10568;48.176;16.316;2022-08-19T00:59:20;4.20;;;2.00;;
20814;SDS011;10568;48.176;16.316;2022-08-19T01:01:47;2.47;;;1.90;;
20814;SDS011;10568;48.176;16.316;2022-08-19T01:04:13;4.90;;;2.10;;
20814;SDS011;10568;48.176;16.316;2022-08-19T01:06:39;3.97;;;1.90;;
20814;SDS011;10568;48.176;16.316;2022-08-19T01:09:06;2.60;;;1.88;;
20814;SDS011;10568;48.176;16.316;2022-08-19T01:11:34;3.85;;;2.05;;
20814;SDS011;10568;48.176;16.316;2022-08-19T01:14:03;4.40;;;2.13;;
20814;SDS011;10568;48.176;16.316;2022-08-19T01:16:30;4.15;;;2.08;;
20814;SDS011;10568;48.176;16.316;2022-08-19T01:18:59;4.35;;;1.98;;
20814;SDS011;10568;48.176;16.316;2022-08-19T01:24:03;5.38;;;1.80;;
20814;SDS011;10568;48.176;16.316;2022-08-19T01:26:29;3.53;;;1.85;;
20814;SDS011;10568;48.176;16.316;2022-08-19T01:28:56;4.78;;;2.28;;
20814;SDS011;10568;48.176;16.316;2022-08-19T01:31:24;5.50;;;1.75;;
20814;SDS011;10568;48.176;16.316;2022-08-19T01:33:51;5.20;;;1.83;;
20814;SDS011;10568;48.176;16.316;2022-08-19T01:36:31;4.55;;;1.77;;
20814;SDS011;10568;48.176;16.316;2022-08-19T01:39:03;2.50;;;1.92;;
20814;SDS011;10568;48.176;16.316;2022-08-19T01:41:31;6.32;;;1.85;;
20814;SDS011;10568;48.176;16.316;2022-08-19T01:43:57;5.95;;;2.10;;
20814;SDS011;10568;48.176;16.316;2022-08-19T01:46:23;2.88;;;2.03;;
20814;SDS011;10568;48.176;16.316;2022-08-19T01:48:49;3.67;;;1.67;;
20814;SDS011;10568;48.176;16.316;2022-08-19T01:51:15;2.78;;;1.80;;
20814;SDS011;10568;48.176;16.316;2022-08-19T01:53:41;3.25;;;1.73;;
20814;SDS011;10568;48.176;16.316;2022-08-19T01:56:07;3.87;;;1.90;;
20814;SDS011;10568;48.176;16.316;2022-08-19T01:58:35;4.10;;;2.08;;
20814;SDS011;10568;48.176;16.316;2022-08-19T02:01:06;2.25;;;1.52;;
20814;SDS011;10568;48.176;16.316;2022-08-19T02:03:32;3.10;;;2.00;;
20814;SDS011;10568;48.176;16.316;2022-08-19T02:06:00;3.10;;;1.60;;
20814;SDS011;10568;48.176;16.316;2022-08-19T02:08:34;4.88;;;1.67;;
20814;SDS011;10568;48.176;16.316;2022-08-19T02:11:01;4.68;;;1.90;;
20814;SDS011;10568;48.176;16.316;2022-08-19T02:13:28;2.92;;;1.67;;
20814;SDS011;10568;48.176;16.316;2022-08-19T02:15:55;4.00;;;1.58;;
20814;SDS011;10568;48.176;16.316;2022-08-19T02:18:21;4.93;;;1.98;;
20814;SDS011;10568;48.176;16.316;2022-08-19T02:20:47;6.32;;;1.85;;
20814;SDS011;10568;48.176;16.316;2022-08-19T02:23:13;3.53;;;2.10;;
20814;SDS011;10568;48.176;16.316;2022-08-19T02:25:41;7.13;;;1.67;;
20814;SDS011;10568;48.176;16.316;2022-08-19T02:28:07;2.70;;;2.00;;
20814;SDS011;10568;48.176;16.316;2022-08-19T02:30:33;3.88;;;1.77;;
20814;SDS011;10568;48.176;16.316;2022-08-19T02:32:59;5.35;;;2.00;;
20814;SDS011;10568;48.176;16.316;2022-08-19T02:35:25;3.83;;;1.73;;
20814;SDS011;10568;48.176;16.316;2022-08-19T02:37:51;5.57;;;1.70;;
20814;SDS011;10568;48.176;16.316;2022-08-19T02:40:35;5.70;;;1.88;;
20814;SDS011;10568;48.176;16.316;2022-08-19T02:43:05;2.85;;;1.92;;
20814;SDS011;10568;48.176;16.316;2022-08-19T02:45:36;2.90;;;1.98;;
20814;SDS011;10568;48.176;16.316;2022-08-19T02:48:03;7.60;;;2.50;;
20814;SDS011;10568;48.176;16.316;2022-08-19T02:50:30;4.78;;;2.60;;
20814;SDS011;10568;48.176;16.316;2022-08-19T02:52:56;3.80;;;2.17;;
20814;SDS011;10568;48.176;16.316;2022-08-19T02:55:22;3.25;;;2.55;;
20814;SDS011;10568;48.176;16.316;2022-08-19T02:57:48;2.83;;;2.05;;
20814;SDS011;10568;48.176;16.316;2022-08-19T03:00:14;4.35;;;2.28;;
20814;SDS011;10568;48.176;16.316;2022-08-19T03:02:40;5.30;;;2.50;;
20814;SDS011;10568;48.176;16.316;2022-08-19T03:05:06;3.17;;;2.45;;
20814;SDS011;10568;48.176;16.316;2022-08-19T03:07:34;4.15;;;2.65;;
20814;SDS011;10568;48.176;16.316;2022-08-19T03:10:00;4.88;;;2.58;;
20814;SDS011;10568;48.176;16.316;2022-08-19T03:12:26;3.95;;;2.42;;
20814;SDS011;10568;48.176;16.316;2022-08-19T03:14:52;5.85;;;2.80;;
20814;SDS011;10568;48.176;16.316;2022-08-19T03:17:18;4.07;;;2.58;;
20814;SDS011;10568;48.176;16.316;2022-08-19T03:19:44;3.85;;;2.60;;
20814;SDS011;10568;48.176;16.316;2022-08-19T03:22:09;6.40;;;2.70;;
20814;SDS011;10568;48.176;16.316;2022-08-19T03:24:35;4.05;;;2.58;;
20814;SDS011;10568;48.176;16.316;2022-08-19T03:27:02;4.75;;;2.60;;
20814;SDS011;10568;48.176;16.316;2022-08-19T03:29:30;7.70;;;2.85;;
20814;SDS011;10568;48.176;16.316;2022-08-19T03:32:00;5.95;;;2.78;;
20814;SDS011;10568;48.176;16.316;2022-08-19T03:34:29;2.88;;;2.47;;
20814;SDS011;10568;48.176;16.316;2022-08-19T03:36:56;4.38;;;2.72;;
20814;SDS011;10568;48.176;16.316;2022-08-19T03:39:28;3.95;;;2.83;;
20814;SDS011;10568;48.176;16.316;2022-08-19T03:41:55;4.68;;;2.97;;
20814;SDS011;10568;48.176;16.316;2022-08-19T03:44:27;3.55;;;3.10;;
20814;SDS011;10568;48.176;16.316;2022-08-19T03:46:55;3.42;;;2.60;;
20814;SDS011;10568;48.176;16.316;2022-08-19T03:49:23;5.97;;;3.00;;
20814;SDS011;10568;48.176;16.316;2022-08-19T03:51:54;4.05;;;2.97;;
20814;SDS011;10568;48.176;16.316;2022-08-19T03:54:22;3.95;;;3.05;;
20814;SDS011;10568;48.176;16.316;2022-08-19T03:56:49;5.78;;;2.88;;
20814;SDS011;10568;48.176;16.316;2022-08-19T03:59:18;6.28;;;2.92;;
20814;SDS011;10568;48.176;16.316;2022-08-19T04:01:47;3.78;;;2.90;;
20814;SDS011;10568;48.176;16.316;2022-08-19T04:04:13;5.85;;;2.90;;
20814;SDS011;10568;48.176;16.316;2022-08-19T04:06:39;4.53;;;3.20;;
20814;SDS011;10568;48.176;16.316;2022-08-19T04:09:05;3.42;;;3.10;;
20814;SDS011;10568;48.176;16.316;2022-08-19T04:11:36;8.32;;;3.05;;
20814;SDS011;10568;48.176;16.316;2022-08-19T04:14:06;4.40;;;3.55;;
20814;SDS011;10568;48.176;16.316;2022-08-19T04:16:33;5.70;;;3.67;;
20814;SDS011;10568;48.176;16.316;2022-08-19T04:19:00;3.78;;;3.00;;
20814;SDS011;10568;48.176;16.316;2022-08-19T04:21:27;4.45;;;3.13;;
20814;SDS011;10568;48.176;16.316;2022-08-19T04:23:53;5.72;;;3.50;;
20814;SDS011;10568;48.176;16.316;2022-08-19T04:26:21;3.45;;;3.03;;
20814;SDS011;10568;48.176;16.316;2022-08-19T04:28:50;4.32;;;2.97;;
20814;SDS011;10568;48.176;16.316;2022-08-19T04:31:21;5.13;;;3.05;;
20814;SDS011;10568;48.176;16.316;2022-08-19T04:33:53;3.97;;;3.08;;
20814;SDS011;10568;48.176;16.316;2022-08-19T04:36:22;5.13;;;2.78;;
20814;SDS011;10568;48.176;16.316;2022-08-19T04:38:52;3.20;;;2.90;;
20814;SDS011;10568;48.176;16.316;2022-08-19T04:41:19;4.68;;;3.60;;
20814;SDS011;10568;48.176;16.316;2022-08-19T04:44:04;4.60;;;3.33;;
20814;SDS011;10568;48.176;16.316;2022-08-19T04:46:29;5.57;;;3.17;;
20814;SDS011;10568;48.176;16.316;2022-08-19T04:48:56;6.60;;;3.35;;
20814;SDS011;10568;48.176;16.316;2022-08-19T04:51:23;4.72;;;3.63;;
20814;SDS011;10568;48.176;16.316;2022-08-19T04:53:48;5.22;;;3.05;;
20814;SDS011;10568;48.176;16.316;2022-08-19T04:56:16;5.22;;;3.55;;
20814;SDS011;10568;48.176;16.316;2022-08-19T04:58:44;4.00;;;3.25;;
20814;SDS011;10568;48.176;16.316;2022-08-19T05:01:16;5.63;;;4.22;;
20814;SDS011;10568;48.176;16.316;2022-08-19T05:03:44;5.70;;;3.72;;
20814;SDS011;10568;48.176;16.316;2022-08-19T05:06:10;5.25;;;3.83;;
20814;SDS011;10568;48.176;16.316;2022-08-19T05:08:38;5.25;;;3.65;;
20814;SDS011;10568;48.176;16.316;2022-08-19T05:11:13;5.05;;;3.90;;
20814;SDS011;10568;48.176;16.316;2022-08-19T05:13:41;5.28;;;4.07;;
20814;SDS011;10568;48.176;16.316;2022-08-19T05:16:08;6.28;;;4.25;;
20814;SDS011;10568;48.176;16.316;2022-08-19T05:18:35;5.97;;;3.72;;
20814;SDS011;10568;48.176;16.316;2022-08-19T05:21:20;6.65;;;4.20;;
20814;SDS011;10568;48.176;16.316;2022-08-19T05:24:05;5.57;;;4.60;;
20814;SDS011;10568;48.176;16.316;2022-08-19T05:26:37;5.97;;;3.78;;
20814;SDS011;10568;48.176;16.316;2022-08-19T05:29:04;7.68;;;3.90;;
20814;SDS011;10568;48.176;16.316;2022-08-19T05:31:32;6.75;;;4.53;;
20814;SDS011;10568;48.176;16.316;2022-08-19T05:33:58;6.05;;;4.13;;
20814;SDS011;10568;48.176;16.316;2022-08-19T05:36:25;5.65;;;4.25;;
20814;SDS011;10568;48.176;16.316;2022-08-19T05:38:51;4.75;;;4.28;;
20814;SDS011;10568;48.176;16.316;2022-08-19T05:41:18;6.38;;;4.68;;
20814;SDS011;10568;48.176;16.316;2022-08-19T05:43:45;4.65;;;4.05;;
20814;SDS011;10568;48.176;16.316;2022-08-19T05:46:17;7.57;;;4.57;;
20814;SDS011;10568;48.176;16.316;2022-08-19T05:48:44;6.55;;;4.90;;
20814;SDS011;10568;48.176;16.316;2022-08-19T05:51:10;6.82;;;4.97;;
20814;SDS011;10568;48.176;16.316;2022-08-19T05:53:37;7.47;;;4.63;;
20814;SDS011;10568;48.176;16.316;2022-08-19T05:56:06;7.13;;;4.43;;
20814;SDS011;10568;48.176;16.316;2022-08-19T05:58:34;7.05;;;4.72;;
20814;SDS011;10568;48.176;16.316;2022-08-19T06:01:01;6.35;;;4.38;;
20814;SDS011;10568;48.176;16.316;2022-08-19T06:03:30;7.32;;;4.53;;
20814;SDS011;10568;48.176;16.316;2022-08-19T06:05:58;8.52;;;5.25;;
20814;SDS011;10568;48.176;16.316;2022-08-19T06:08:25;5.95;;;4.68;;
20814;SDS011;10568;48.176;16.316;2022-08-19T06:10:52;5.22;;;4.70;;
20814;SDS011;10568;48.176;16.316;2022-08-19T06:13:18;7.55;;;5.82;;
20814;SDS011;10568;48.176;16.316;2022-08-19T06:15:44;7.43;;;5.30;;
20814;SDS011;10568;48.176;16.316;2022-08-19T06:18:23;6.80;;;4.78;;
20814;SDS011;10568;48.176;16.316;2022-08-19T06:20:49;6.88;;;4.70;;
20814;SDS011;10568;48.176;16.316;2022-08-19T06:23:15;5.68;;;5.07;;
20814;SDS011;10568;48.176;16.316;2022-08-19T06:25:41;7.28;;;5.07;;
20814;SDS011;10568;48.176;16.316;2022-08-19T06:28:07;6.93;;;4.43;;
20814;SDS011;10568;48.176;16.316;2022-08-19T06:30:32;6.38;;;4.28;;
20814;SDS011;10568;48.176;16.316;2022-08-19T06:32:58;6.10;;;4.53;;
20814;SDS011;10568;48.176;16.316;2022-08-19T06:35:24;6.65;;;4.82;;
20814;SDS011;10568;48.176;16.316;2022-08-19T06:37:50;4.78;;;4.25;;
20814;SDS011;10568;48.176;16.316;2022-08-19T06:40:17;4.80;;;3.92;;
20814;SDS011;10568;48.176;16.316;2022-08-19T06:42:43;6.13;;;3.78;;
20814;SDS011;10568;48.176;16.316;2022-08-19T06:45:08;4.53;;;3.97;;
20814;SDS011;10568;48.176;16.316;2022-08-19T06:47:35;5.10;;;4.20;;
20814;SDS011;10568;48.176;16.316;2022-08-19T06:50:01;5.88;;;3.78;;
20814;SDS011;10568;48.176;16.316;2022-08-19T06:52:29;5.65;;;3.83;;
20814;SDS011;10568;48.176;16.316;2022-08-19T06:54:59;4.82;;;3.72;;
20814;SDS011;10568;48.176;16.316;2022-08-19T06:57:25;4.25;;;3.80;;
20814;SDS011;10568;48.176;16.316;2022-08-19T06:59:51;6.15;;;4.28;;
20814;SDS011;10568;48.176;16.316;2022-08-19T07:02:18;7.25;;;4.10;;
20814;SDS011;10568;48.176;16.316;2022-08-19T07:04:44;4.68;;;3.67;;
20814;SDS011;10568;48.176;16.316;2022-08-19T07:07:11;4.57;;;4.03;;
20814;SDS011;10568;48.176;16.316;2022-08-19T07:09:39;5.18;;;4.13;;
20814;SDS011;10568;48.176;16.316;2022-08-19T07:12:08;4.88;;;3.92;;
20814;SDS011;10568;48.176;16.316;2022-08-19T07:14:35;4.38;;;3.90;;
20814;SDS011;10568;48.176;16.316;2022-08-19T07:17:03;4.22;;;3.30;;
20814;SDS011;10568;48.176;16.316;2022-08-19T07:19:33;5.82;;;3.92;;
20814;SDS011;10568;48.176;16.316;2022-08-19T07:22:00;3.90;;;3.50;;
20814;SDS011;10568;48.176;16.316;2022-08-19T07:24:28;4.90;;;3.92;;
20814;SDS011;10568;48.176;16.316;2022-08-19T07:26:56;5.53;;;4.13;;
20814;SDS011;10568;48.176;16.316;2022-08-19T07:29:25;6.00;;;3.80;;
20814;SDS011;10568;48.176;16.316;2022-08-19T07:31:53;4.32;;;3.67;;
20814;SDS011;10568;48.176;16.316;2022-08-19T07:34:24;5.05;;;3.67;;
20814;SDS011;10568;48.176;16.316;2022-08-19T07:36:50;3.70;;;3.35;;
20814;SDS011;10568;48.176;16.316;2022-08-19T07:39:21;6.70;;;4.15;;
20814;SDS011;10568;48.176;16.316;2022-08-19T07:41:48;3.58;;;3.28;;
20814;SDS011;10568;48.176;16.316;2022-08-19T07:44:15;5.13;;;3.63;;
20814;SDS011;10568;48.176;16.316;2022-08-19T07:46:44;5.15;;;4.05;;
20814;SDS011;10568;48.176;16.316;2022-08-19T07:49:13;5.53;;;4.07;;
20814;SDS011;10568;48.176;16.316;2022-08-19T07:51:45;5.20;;;4.30;;
20814;SDS011;10568;48.176;16.316;2022-08-19T07:54:16;6.45;;;3.70;;
20814;SDS011;10568;48.176;16.316;2022-08-19T07:56:43;5.93;;;3.72;;
20814;SDS011;10568;48.176;16.316;2022-08-19T07:59:09;4.80;;;3.83;;
20814;SDS011;10568;48.176;16.316;2022-08-19T08:01:35;5.18;;;3.55;;
20814;SDS011;10568;48.176;16.316;2022-08-19T08:04:01;3.88;;;3.50;;
20814;SDS011;10568;48.176;16.316;2022-08-19T08:06:46;5.38;;;3.88;;
20814;SDS011;10568;48.176;16.316;2022-08-19T08:09:35;5.00;;;3.53;;
20814;SDS011;10568;48.176;16.316;2022-08-19T08:14:57;4.63;;;3.85;;
20814;SDS011;10568;48.176;16.316;2022-08-19T08:17:27;4.15;;;3.33;;
20814;SDS011;10568;48.176;16.316;2022-08-19T08:19:54;4.07;;;3.50;;
20814;SDS011;10568;48.176;16.316;2022-08-19T08:22:20;5.18;;;3.80;;
20814;SDS011;10568;48.176;16.316;2022-08-19T08:25:07;4.90;;;3.58;;
20814;SDS011;10568;48.176;16.316;2022-08-19T08:27:38;4.53;;;3.38;;
20814;SDS011;10568;48.176;16.316;2022-08-19T08:30:08;5.30;;;3.72;;
20814;SDS011;10568;48.176;16.316;2022-08-19T08:32:36;7.93;;;3.70;;
20814;SDS011;10568;48.176;16.316;2022-08-19T08:35:07;3.47;;;3.00;;
20814;SDS011;10568;48.176;16.316;2022-08-19T08:37:34;5.57;;;3.72;;
20814;SDS011;10568;48.176;16.316;2022-08-19T08:40:10;3.67;;;3.08;;
20814;SDS011;10568;48.176;16.316;2022-08-19T08:43:00;4.20;;;3.60;;
20814;SDS011;10568;48.176;16.316;2022-08-19T08:45:35;5.45;;;3.45;;
20814;SDS011;10568;48.176;16.316;2022-08-19T08:48:30;5.15;;;3.25;;
20814;SDS011;10568;48.176;16.316;2022-08-19T08:51:07;4.22;;;3.58;;
20814;SDS011;10568;48.176;16.316;2022-08-19T08:53:37;4.15;;;3.47;;
20814;SDS011;10568;48.176;16.316;2022-08-19T08:56:04;5.65;;;3.50;;
20814;SDS011;10568;48.176;16.316;2022-08-19T09:01:08;3.83;;;3.10;;
20814;SDS011;10568;48.176;16.316;2022-08-19T09:03:36;4.32;;;3.47;;
20814;SDS011;10568;48.176;16.316;2022-08-19T09:06:06;4.57;;;3.28;;
20814;SDS011;10568;48.176;16.316;2022-08-19T09:16:45;3.60;;;3.13;;
20814;SDS011;10568;48.176;16.316;2022-08-19T09:19:11;4.20;;;3.63;;
20814;SDS011;10568;48.176;16.316;2022-08-19T09:21:37;6.95;;;3.60;;
20814;SDS011;10568;48.176;16.316;2022-08-19T09:24:03;5.13;;;3.33;;
20814;SDS011;10568;48.176;16.316;2022-08-19T09:26:30;5.35;;;3.65;;
20814;SDS011;10568;48.176;16.316;2022-08-19T09:28:57;4.40;;;3.10;;
20814;SDS011;10568;48.176;16.316;2022-08-19T09:31:25;3.80;;;3.35;;
20814;SDS011;10568;48.176;16.316;2022-08-19T09:33:53;4.95;;;3.10;;
20814;SDS011;10568;48.176;16.316;2022-08-19T09:36:22;4.10;;;3.40;;
20814;SDS011;10568;48.176;16.316;2022-08-19T09:38:50;3.67;;;3.17;;
20814;SDS011;10568;48.176;16.316;2022-08-19T09:41:18;3.35;;;2.88;;
20814;SDS011;10568;48.176;16.316;2022-08-19T09:43:48;3.20;;;2.90;;
20814;SDS011;10568;48.176;16.316;2022-08-19T09:46:17;3.40;;;2.92;;
20814;SDS011;10568;48.176;16.316;2022-08-19T09:48:46;4.03;;;3.05;;
20814;SDS011;10568;48.176;16.316;2022-08-19T09:51:15;5.03;;;3.15;;
20814;SDS011;10568;48.176;16.316;2022-08-19T09:53:44;2.95;;;2.60;;
20814;SDS011;10568;48.176;16.316;2022-08-19T09:56:11;3.60;;;2.97;;
20814;SDS011;10568;48.176;16.316;2022-08-19T09:58:38;4.18;;;3.17;;
20814;SDS011;10568;48.176;16.316;2022-08-19T10:01:04;5.15;;;3.10;;
20814;SDS011;10568;48.176;16.316;2022-08-19T10:03:32;4.72;;;2.85;;
20814;SDS011;10568;48.176;16.316;2022-08-19T10:06:01;5.57;;;3.13;;
20814;SDS011;10568;48.176;16.316;2022-08-19T10:08:29;5.70;;;2.88;;
20814;SDS011;10568;48.176;16.316;2022-08-19T10:10:57;4.15;;;2.83;;
20814;SDS011;10568;48.176;16.316;2022-08-19T10:13:25;4.68;;;3.13;;
20814;SDS011;10568;48.176;16.316;2022-08-19T10:15:52;4.80;;;2.75;;
20814;SDS011;10568;48.176;16.316;2022-08-19T10:18:19;4.32;;;2.83;;
20814;SDS011;10568;48.176;16.316;2022-08-19T10:20:46;4.85;;;2.83;;
20814;SDS011;10568;48.176;16.316;2022-08-19T10:23:13;4.13;;;2.80;;
20814;SDS011;10568;48.176;16.316;2022-08-19T10:25:40;5.43;;;2.92;;
20814;SDS011;10568;48.176;16.316;2022-08-19T10:28:07;4.57;;;2.65;;
20814;SDS011;10568;48.176;16.316;2022-08-19T10:30:33;3.78;;;2.72;;
20814;SDS011;10568;48.176;16.316;2022-08-19T10:33:00;2.97;;;2.47;;
20814;SDS011;10568;48.176;16.316;2022-08-19T10:35:26;5.13;;;3.10;;
20814;SDS011;10568;48.176;16.316;2022-08-19T10:37:54;6.43;;;3.13;;
20814;SDS011;10568;48.176;16.316;2022-08-19T10:40:24;5.13;;;2.90;;
20814;SDS011;10568;48.176;16.316;2022-08-19T10:42:51;3.25;;;2.95;;
20814;SDS011;10568;48.176;16.316;2022-08-19T10:45:17;3.35;;;2.92;;
20814;SDS011;10568;48.176;16.316;2022-08-19T10:47:43;6.32;;;3.05;;
20814;SDS011;10568;48.176;16.316;2022-08-19T10:50:08;3.17;;;2.67;;
20814;SDS011;10568;48.176;16.316;2022-08-19T10:52:53;4.25;;;3.08;;
20814;SDS011;10568;48.176;16.316;2022-08-19T10:55:20;6.10;;;3.25;;
20814;SDS011;10568;48.176;16.316;2022-08-19T10:58:11;8.35;;;3.47;;
20814;SDS011;10568;48.176;16.316;2022-08-19T11:00:42;5.18;;;3.35;;
20814;SDS011;10568;48.176;16.316;2022-08-19T11:03:15;5.85;;;3.13;;
20814;SDS011;10568;48.176;16.316;2022-08-19T11:05:41;3.83;;;2.97;;
20814;SDS011;10568;48.176;16.316;2022-08-19T11:08:07;5.90;;;2.85;;
20814;SDS011;10568;48.176;16.316;2022-08-19T11:10:37;6.35;;;2.85;;
20814;SDS011;10568;48.176;16.316;2022-08-19T11:13:07;4.53;;;3.40;;
20814;SDS011;10568;48.176;16.316;2022-08-19T11:15:33;4.60;;;3.22;;
20814;SDS011;10568;48.176;16.316;2022-08-19T11:17:59;4.45;;;2.83;;
20814;SDS011;10568;48.176;16.316;2022-08-19T11:20:25;7.38;;;2.83;;
20814;SDS011;10568;48.176;16.316;2022-08-19T11:22:51;4.53;;;2.67;;
20814;SDS011;10568;48.176;16.316;2022-08-19T11:25:18;7.95;;;2.83;;
20814;SDS011;10568;48.176;16.316;2022-08-19T11:27:44;4.95;;;3.08;;
20814;SDS011;10568;48.176;16.316;2022-08-19T11:30:12;3.85;;;3.00;;
20814;SDS011;10568;48.176;16.316;2022-08-19T11:32:38;5.35;;;3.58;;
20814;SDS011;10568;48.176;16.316;2022-08-19T11:35:05;5.75;;;2.83;;
20814;SDS011;10568;48.176;16.316;2022-08-19T11:37:31;6.05;;;2.78;;
20814;SDS011;10568;48.176;16.316;2022-08-19T11:40:03;6.32;;;2.67;;
20814;SDS011;10568;48.176;16.316;2022-08-19T11:42:30;5.45;;;2.50;;
20814;SDS011;10568;48.176;16.316;2022-08-19T11:45:14;6.38;;;2.10;;
20814;SDS011;10568;48.176;16.316;2022-08-19T11:47:40;6.95;;;2.28;;
20814;SDS011;10568;48.176;16.316;2022-08-19T11:50:05;5.35;;;2.42;;
20814;SDS011;10568;48.176;16.316;2022-08-19T11:52:31;9.13;;;2.47;;
20814;SDS011;10568;48.176;16.316;2022-08-19T11:54:57;6.10;;;2.20;;
20814;SDS011;10568;48.176;16.316;2022-08-19T11:57:23;5.93;;;2.10;;
20814;SDS011;10568;48.176;16.316;2022-08-19T11:59:50;3.78;;;1.98;;
20814;SDS011;10568;48.176;16.316;2022-08-19T12:02:17;7.43;;;2.25;;
20814;SDS011;10568;48.176;16.316;2022-08-19T12:04:44;7.18;;;2.17;;
20814;SDS011;10568;48.176;16.316;2022-08-19T12:07:09;5.20;;;2.10;;
20814;SDS011;10568;48.176;16.316;2022-08-19T12:09:35;5.53;;;2.00;;
20814;SDS011;10568;48.176;16.316;2022-08-19T12:12:01;9.73;;;2.42;;
20814;SDS011;10568;48.176;16.316;2022-08-19T12:14:27;11.70;;;2.33;;
20814;SDS011;10568;48.176;16.316;2022-08-19T12:16:55;11.38;;;2.17;;
20814;SDS011;10568;48.176;16.316;2022-08-19T12:19:20;6.93;;;2.67;;
20814;SDS011;10568;48.176;16.316;2022-08-19T12:21:46;8.85;;;2.30;;
20814;SDS011;10568;48.176;16.316;2022-08-19T12:24:12;10.45;;;2.70;;
20814;SDS011;10568;48.176;16.316;2022-08-19T12:26:38;6.50;;;2.53;;
20814;SDS011;10568;48.176;16.316;2022-08-19T12:29:04;5.32;;;2.78;;
20814;SDS011;10568;48.176;16.316;2022-08-19T12:31:30;6.75;;;1.90;;
20814;SDS011;10568;48.176;16.316;2022-08-19T12:33:56;7.13;;;2.80;;
20814;SDS011;10568;48.176;16.316;2022-08-19T12:36:23;5.43;;;2.55;;
20814;SDS011;10568;48.176;16.316;2022-08-19T12:38:50;9.52;;;3.10;;
20814;SDS011;10568;48.176;16.316;2022-08-19T12:41:16;11.13;;;3.05;;
20814;SDS011;10568;48.176;16.316;2022-08-19T12:43:43;8.40;;;2.72;;
20814;SDS011;10568;48.176;16.316;2022-08-19T12:46:10;5.32;;;2.50;;
20814;SDS011;10568;48.176;16.316;2022-08-19T12:48:37;11.00;;;2.53;;
20814;SDS011;10568;48.176;16.316;2022-08-19T12:51:07;3.67;;;2.17;;
20814;SDS011;10568;48.176;16.316;2022-08-19T12:53:35;7.93;;;3.00;;
20814;SDS011;10568;48.176;16.316;2022-08-19T12:56:01;5.50;;;2.90;;
20814;SDS011;10568;48.176;16.316;2022-08-19T12:58:27;5.88;;;2.60;;
20814;SDS011;10568;48.176;16.316;2022-08-19T13:00:53;7.20;;;2.50;;
20814;SDS011;10568;48.176;16.316;2022-08-19T13:03:19;5.05;;;2.45;;
20814;SDS011;10568;48.176;16.316;2022-08-19T13:05:47;4.80;;;2.53;;
20814;SDS011;10568;48.176;16.316;2022-08-19T13:08:15;3.85;;;2.50;;
20814;SDS011;10568;48.176;16.316;2022-08-19T13:10:42;4.45;;;2.33;;
20814;SDS011;10568;48.176;16.316;2022-08-19T13:13:08;4.47;;;2.47;;
20814;SDS011;10568;48.176;16.316;2022-08-19T13:15:40;6.10;;;2.50;;
20814;SDS011;10568;48.176;16.316;2022-08-19T13:18:09;8.40;;;2.78;;
20814;SDS011;10568;48.176;16.316;2022-08-19T13:20:38;7.30;;;2.67;;
20814;SDS011;10568;48.176;16.316;2022-08-19T13:23:05;4.68;;;2.65;;
20814;SDS011;10568;48.176;16.316;2022-08-19T13:25:32;3.78;;;2.28;;
20814;SDS011;10568;48.176;16.316;2022-08-19T13:27:58;10.07;;;2.53;;
20814;SDS011;10568;48.176;16.316;2022-08-19T13:30:25;5.93;;;2.50;;
20814;SDS011;10568;48.176;16.316;2022-08-19T13:33:17;6.53;;;2.30;;
20814;SDS011;10568;48.176;16.316;2022-08-19T13:35:44;4.28;;;2.17;;
20814;SDS011;10568;48.176;16.316;2022-08-19T13:38:11;8.65;;;2.95;;
20814;SDS011;10568;48.176;16.316;2022-08-19T13:40:38;7.15;;;2.80;;
20814;SDS011;10568;48.176;16.316;2022-08-19T13:43:04;6.07;;;2.50;;
20814;SDS011;10568;48.176;16.316;2022-08-19T13:45:31;7.78;;;2.67;;
20814;SDS011;10568;48.176;16.316;2022-08-19T13:47:59;5.10;;;2.40;;
20814;SDS011;10568;48.176;16.316;2022-08-19T13:50:31;6.00;;;2.80;;
20814;SDS011;10568;48.176;16.316;2022-08-19T13:52:58;7.25;;;2.67;;
20814;SDS011;10568;48.176;16.316;2022-08-19T13:55:25;4.97;;;2.25;;
20814;SDS011;10568;48.176;16.316;2022-08-19T13:57:52;6.05;;;2.50;;
20814;SDS011;10568;48.176;16.316;2022-08-19T14:00:20;4.82;;;2.45;;
20814;SDS011;10568;48.176;16.316;2022-08-19T14:02:50;5.07;;;2.15;;
20814;SDS011;10568;48.176;16.316;2022-08-19T14:05:16;5.53;;;2.60;;
20814;SDS011;10568;48.176;16.316;2022-08-19T14:07:43;7.88;;;2.55;;
20814;SDS011;10568;48.176;16.316;2022-08-19T14:10:10;4.90;;;2.13;;
20814;SDS011;10568;48.176;16.316;2022-08-19T14:12:38;4.57;;;2.60;;
20814;SDS011;10568;48.176;16.316;2022-08-19T14:15:05;8.25;;;2.53;;
20814;SDS011;10568;48.176;16.316;2022-08-19T14:17:31;5.60;;;2.80;;
20814;SDS011;10568;48.176;16.316;2022-08-19T14:20:00;5.07;;;2.28;;
20814;SDS011;10568;48.176;16.316;2022-08-19T14:22:33;5.00;;;2.50;;
20814;SDS011;10568;48.176;16.316;2022-08-19T14:25:00;5.88;;;2.22;;
20814;SDS011;10568;48.176;16.316;2022-08-19T14:27:26;6.30;;;2.30;;
20814;SDS011;10568;48.176;16.316;2022-08-19T14:29:52;5.07;;;2.03;;
20814;SDS011;10568;48.176;16.316;2022-08-19T14:32:18;7.32;;;1.92;;
20814;SDS011;10568;48.176;16.316;2022-08-19T14:34:44;8.20;;;2.45;;
20814;SDS011;10568;48.176;16.316;2022-08-19T14:37:13;5.75;;;2.60;;
20814;SDS011;10568;48.176;16.316;2022-08-19T14:39:42;6.05;;;2.22;;
20814;SDS011;10568;48.176;16.316;2022-08-19T14:42:10;5.32;;;2.10;;
20814;SDS011;10568;48.176;16.316;2022-08-19T14:44:36;7.72;;;1.98;;
20814;SDS011;10568;48.176;16.316;2022-08-19T14:47:02;4.47;;;1.67;;
20814;SDS011;10568;48.176;16.316;2022-08-19T14:49:28;3.88;;;1.55;;
20814;SDS011;10568;48.176;16.316;2022-08-19T14:51:54;5.40;;;1.92;;
20814;SDS011;10568;48.176;16.316;2022-08-19T14:54:20;3.33;;;1.92;;
20814;SDS011;10568;48.176;16.316;2022-08-19T14:56:46;3.25;;;1.85;;
20814;SDS011;10568;48.176;16.316;2022-08-19T14:59:13;3.97;;;1.73;;